sensor_id;sensor_type;location;lat;lon;timestamp;temperature;humidity
2647;DHT22;1333;50.958;6.770;2023-05-29T00:01:33;15.20;99.90
2647;DHT22;1333;50.958;6.770;2023-05-29T00:04:01;15.20;99.90
2647;DHT22;1333;50.958;6.770;2023-05-29T00:06:26;15.10;99.90
2647;DHT22;1333;50.958;6.770;2023-05-29T00:08:52;15.00;99.90
2647;DHT22;1333;50.958;6.770;2023-05-29T00:11:17;15.00;99.90
2647;DHT22;1333;50.958;6.770;2023-05-29T00:13:43;14.90;99.90
2647;DHT22;1333;50.958;6.770;2023-05-29T00:16:08;14.90;99.90
2647;DHT22;1333;50.958;6.770;2023-05-29T00:18:35;14.80;99.90
2647;DHT22;1333;50.958;6.770;2023-05-29T00:21:01;14.80;99.90
2647;DHT22;1333;50.958;6.770;2023-05-29T00:23:27;14.70;99.90
2647;DHT22;1333;50.958;6.770;2023-05-29T00:25:52;14.70;99.90
2647;DHT22;1333;50.958;6.770;2023-05-29T00:28:18;14.70;99.90
2647;DHT22;1333;50.958;6.770;2023-05-29T00:30:43;14.60;99.90
2647;DHT22;1333;50.958;6.770;2023-05-29T00:33:09;14.50;99.90
2647;DHT22;1333;50.958;6.770;2023-05-29T00:35:34;14.50;99.90
2647;DHT22;1333;50.958;6.770;2023-05-29T00:38:00;14.50;99.90
2647;DHT22;1333;50.958;6.770;2023-05-29T00:40:26;14.40;99.90
2647;DHT22;1333;50.958;6.770;2023-05-29T00:42:51;14.40;99.90
2647;DHT22;1333;50.958;6.770;2023-05-29T00:45:17;14.30;99.90
2647;DHT22;1333;50.958;6.770;2023-05-29T00:47:43;14.30;99.90
2647;DHT22;1333;50.958;6.770;2023-05-29T00:50:11;14.30;99.90
2647;DHT22;1333;50.958;6.770;2023-05-29T00:52:40;14.20;99.90
2647;DHT22;1333;50.958;6.770;2023-05-29T00:55:07;14.20;99.90
2647;DHT22;1333;50.958;6.770;2023-05-29T00:57:34;14.10;99.90
2647;DHT22;1333;50.958;6.770;2023-05-29T01:00:00;14.10;99.90
2647;DHT22;1333;50.958;6.770;2023-05-29T01:02:27;14.00;99.90
2647;DHT22;1333;50.958;6.770;2023-05-29T01:04:54;14.00;99.90
2647;DHT22;1333;50.958;6.770;2023-05-29T01:07:21;14.00;99.90
2647;DHT22;1333;50.958;6.770;2023-05-29T01:09:47;13.90;99.90
2647;DHT22;1333;50.958;6.770;2023-05-29T01:12:40;13.90;99.90
2647;DHT22;1333;50.958;6.770;2023-05-29T01:18:18;13.80;99.90
2647;DHT22;1333;50.958;6.770;2023-05-29T01:21:11;13.80;99.90
2647;DHT22;1333;50.958;6.770;2023-05-29T01:29:08;13.70;99.90
2647;DHT22;1333;50.958;6.770;2023-05-29T01:31:36;13.60;99.90
2647;DHT22;1333;50.958;6.770;2023-05-29T01:34:02;13.60;99.90
2647;DHT22;1333;50.958;6.770;2023-05-29T01:36:28;13.60;99.90
2647;DHT22;1333;50.958;6.770;2023-05-29T01:38:56;13.50;99.90
2647;DHT22;1333;50.958;6.770;2023-05-29T01:41:23;13.50;99.90
2647;DHT22;1333;50.958;6.770;2023-05-29T01:43:50;13.50;99.90
2647;DHT22;1333;50.958;6.770;2023-05-29T01:46:16;13.40;99.90
2647;DHT22;1333;50.958;6.770;2023-05-29T01:48:44;13.40;99.90
2647;DHT22;1333;50.958;6.770;2023-05-29T01:51:10;13.30;99.90
2647;DHT22;1333;50.958;6.770;2023-05-29T01:53:40;13.30;99.90
2647;DHT22;1333;50.958;6.770;2023-05-29T01:56:06;13.30;99.90
2647;DHT22;1333;50.958;6.770;2023-05-29T01:58:34;13.20;99.90
2647;DHT22;1333;50.958;6.770;2023-05-29T02:01:03;13.20;99.90
2647;DHT22;1333;50.958;6.770;2023-05-29T02:03:29;13.20;99.90
2647;DHT22;1333;50.958;6.770;2023-05-29T02:05:59;13.10;99.90
2647;DHT22;1333;50.958;6.770;2023-05-29T02:08:24;13.10;99.90
2647;DHT22;1333;50.958;6.770;2023-05-29T02:10:50;13.00;99.90
2647;DHT22;1333;50.958;6.770;2023-05-29T02:13:16;13.00;99.90
2647;DHT22;1333;50.958;6.770;2023-05-29T02:15:42;13.00;99.90
2647;DHT22;1333;50.958;6.770;2023-05-29T02:18:12;12.90;99.90
2647;DHT22;1333;50.958;6.770;2023-05-29T02:20:38;12.90;99.90
2647;DHT22;1333;50.958;6.770;2023-05-29T02:23:04;12.90;99.90
2647;DHT22;1333;50.958;6.770;2023-05-29T02:25:30;12.90;99.90
2647;DHT22;1333;50.958;6.770;2023-05-29T02:27:56;12.90;99.90
2647;DHT22;1333;50.958;6.770;2023-05-29T02:30:21;12.90;99.90
2647;DHT22;1333;50.958;6.770;2023-05-29T02:32:47;12.80;99.90
2647;DHT22;1333;50.958;6.770;2023-05-29T02:35:12;12.80;99.90
2647;DHT22;1333;50.958;6.770;2023-05-29T02:37:42;12.80;99.90
2647;DHT22;1333;50.958;6.770;2023-05-29T02:40:08;12.70;99.90
2647;DHT22;1333;50.958;6.770;2023-05-29T02:42:34;12.70;99.90
2647;DHT22;1333;50.958;6.770;2023-05-29T02:44:59;12.70;99.90
2647;DHT22;1333;50.958;6.770;2023-05-29T02:47:25;12.70;99.90
2647;DHT22;1333;50.958;6.770;2023-05-29T02:49:51;12.70;99.90
2647;DHT22;1333;50.958;6.770;2023-05-29T02:52:16;12.60;99.90
2647;DHT22;1333;50.958;6.770;2023-05-29T02:54:42;12.60;99.90
2647;DHT22;1333;50.958;6.770;2023-05-29T02:57:07;12.60;99.90
2647;DHT22;1333;50.958;6.770;2023-05-29T02:59:33;12.50;99.90
2647;DHT22;1333;50.958;6.770;2023-05-29T03:01:58;12.50;99.90
2647;DHT22;1333;50.958;6.770;2023-05-29T03:04:24;12.50;99.90
2647;DHT22;1333;50.958;6.770;2023-05-29T03:06:49;12.40;99.90
2647;DHT22;1333;50.958;6.770;2023-05-29T03:09:15;12.40;99.90
2647;DHT22;1333;50.958;6.770;2023-05-29T03:11:42;12.30;99.90
2647;DHT22;1333;50.958;6.770;2023-05-29T03:14:07;12.30;99.90
2647;DHT22;1333;50.958;6.770;2023-05-29T03:16:33;12.30;99.90
2647;DHT22;1333;50.958;6.770;2023-05-29T03:18:58;12.20;99.90
2647;DHT22;1333;50.958;6.770;2023-05-29T03:21:24;12.20;99.90
2647;DHT22;1333;50.958;6.770;2023-05-29T03:23:49;12.20;99.90
2647;DHT22;1333;50.958;6.770;2023-05-29T03:26:15;12.10;99.90
2647;DHT22;1333;50.958;6.770;2023-05-29T03:28:41;12.10;99.90
2647;DHT22;1333;50.958;6.770;2023-05-29T03:31:06;12.10;99.90
2647;DHT22;1333;50.958;6.770;2023-05-29T03:33:34;12.00;99.90
2647;DHT22;1333;50.958;6.770;2023-05-29T03:36:00;12.00;99.90
2647;DHT22;1333;50.958;6.770;2023-05-29T03:38:25;12.00;99.90
2647;DHT22;1333;50.958;6.770;2023-05-29T03:40:51;12.00;99.90
2647;DHT22;1333;50.958;6.770;2023-05-29T03:43:16;12.00;99.90
2647;DHT22;1333;50.958;6.770;2023-05-29T03:45:42;11.90;99.90
2647;DHT22;1333;50.958;6.770;2023-05-29T03:48:07;11.90;99.90
2647;DHT22;1333;50.958;6.770;2023-05-29T03:50:33;11.90;99.90
2647;DHT22;1333;50.958;6.770;2023-05-29T03:52:58;11.90;99.90
2647;DHT22;1333;50.958;6.770;2023-05-29T03:55:26;11.90;99.90
2647;DHT22;1333;50.958;6.770;2023-05-29T03:57:51;11.90;99.90
2647;DHT22;1333;50.958;6.770;2023-05-29T04:00:17;11.90;99.90
2647;DHT22;1333;50.958;6.770;2023-05-29T04:02:43;11.90;99.90
2647;DHT22;1333;50.958;6.770;2023-05-29T04:05:09;11.90;99.90
2647;DHT22;1333;50.958;6.770;2023-05-29T04:07:36;11.90;99.90
2647;DHT22;1333;50.958;6.770;2023-05-29T04:10:05;11.90;99.90
2647;DHT22;1333;50.958;6.770;2023-05-29T04:12:32;12.00;99.90
2647;DHT22;1333;50.958;6.770;2023-05-29T04:14:58;12.00;99.90
2647;DHT22;1333;50.958;6.770;2023-05-29T04:17:23;12.00;99.90
2647;DHT22;1333;50.958;6.770;2023-05-29T04:19:49;12.00;99.90
2647;DHT22;1333;50.958;6.770;2023-05-29T04:22:15;12.10;99.90
2647;DHT22;1333;50.958;6.770;2023-05-29T04:24:40;12.10;99.90
2647;DHT22;1333;50.958;6.770;2023-05-29T04:27:08;12.20;99.90
2647;DHT22;1333;50.958;6.770;2023-05-29T04:29:34;12.20;99.90
2647;DHT22;1333;50.958;6.770;2023-05-29T04:32:00;12.20;99.90
2647;DHT22;1333;50.958;6.770;2023-05-29T04:34:29;12.30;99.90
2647;DHT22;1333;50.958;6.770;2023-05-29T04:36:56;12.40;99.90
2647;DHT22;1333;50.958;6.770;2023-05-29T04:39:23;12.40;99.90
2647;DHT22;1333;50.958;6.770;2023-05-29T04:41:50;12.50;99.90
2647;DHT22;1333;50.958;6.770;2023-05-29T04:44:16;12.60;99.90
2647;DHT22;1333;50.958;6.770;2023-05-29T04:46:42;12.60;99.90
2647;DHT22;1333;50.958;6.770;2023-05-29T04:49:09;12.70;99.90
2647;DHT22;1333;50.958;6.770;2023-05-29T04:51:35;12.80;99.90
2647;DHT22;1333;50.958;6.770;2023-05-29T04:54:02;12.80;99.90
2647;DHT22;1333;50.958;6.770;2023-05-29T04:56:28;12.90;99.90
2647;DHT22;1333;50.958;6.770;2023-05-29T04:58:53;13.00;99.90
2647;DHT22;1333;50.958;6.770;2023-05-29T05:01:19;13.00;99.90
2647;DHT22;1333;50.958;6.770;2023-05-29T05:03:45;13.10;99.90
2647;DHT22;1333;50.958;6.770;2023-05-29T05:06:11;13.20;99.90
2647;DHT22;1333;50.958;6.770;2023-05-29T05:08:38;13.30;99.90
2647;DHT22;1333;50.958;6.770;2023-05-29T05:11:04;13.40;99.90
2647;DHT22;1333;50.958;6.770;2023-05-29T05:13:29;13.50;99.90
2647;DHT22;1333;50.958;6.770;2023-05-29T05:15:55;13.60;99.90
2647;DHT22;1333;50.958;6.770;2023-05-29T05:18:21;13.70;99.90
2647;DHT22;1333;50.958;6.770;2023-05-29T05:20:46;13.80;99.90
2647;DHT22;1333;50.958;6.770;2023-05-29T05:23:12;13.90;99.90
2647;DHT22;1333;50.958;6.770;2023-05-29T05:25:38;14.00;99.90
2647;DHT22;1333;50.958;6.770;2023-05-29T05:28:04;14.20;99.90
2647;DHT22;1333;50.958;6.770;2023-05-29T05:30:30;14.30;99.90
2647;DHT22;1333;50.958;6.770;2023-05-29T05:32:55;14.60;99.90
2647;DHT22;1333;50.958;6.770;2023-05-29T05:35:21;14.80;99.90
2647;DHT22;1333;50.958;6.770;2023-05-29T05:37:47;15.00;99.90
2647;DHT22;1333;50.958;6.770;2023-05-29T05:40:12;15.10;99.90
2647;DHT22;1333;50.958;6.770;2023-05-29T05:42:38;15.40;99.90
2647;DHT22;1333;50.958;6.770;2023-05-29T05:45:04;15.80;99.90
2647;DHT22;1333;50.958;6.770;2023-05-29T05:47:31;16.30;99.90
2647;DHT22;1333;50.958;6.770;2023-05-29T05:49:57;16.70;99.90
2647;DHT22;1333;50.958;6.770;2023-05-29T05:52:23;17.00;99.90
2647;DHT22;1333;50.958;6.770;2023-05-29T05:54:49;17.30;99.90
2647;DHT22;1333;50.958;6.770;2023-05-29T05:57:15;17.50;99.90
2647;DHT22;1333;50.958;6.770;2023-05-29T05:59:41;17.80;99.90
2647;DHT22;1333;50.958;6.770;2023-05-29T06:02:06;18.30;99.90
2647;DHT22;1333;50.958;6.770;2023-05-29T06:04:32;19.10;99.90
2647;DHT22;1333;50.958;6.770;2023-05-29T06:06:58;19.90;99.90
2647;DHT22;1333;50.958;6.770;2023-05-29T06:09:23;20.70;99.90
2647;DHT22;1333;50.958;6.770;2023-05-29T06:11:50;21.50;98.60
2647;DHT22;1333;50.958;6.770;2023-05-29T06:14:16;22.40;94.30
2647;DHT22;1333;50.958;6.770;2023-05-29T06:16:42;23.20;90.00
2647;DHT22;1333;50.958;6.770;2023-05-29T06:19:08;24.00;81.00
2647;DHT22;1333;50.958;6.770;2023-05-29T06:21:34;24.70;74.80
2647;DHT22;1333;50.958;6.770;2023-05-29T06:23:59;25.40;69.40
2647;DHT22;1333;50.958;6.770;2023-05-29T06:26:25;26.10;62.70
2647;DHT22;1333;50.958;6.770;2023-05-29T06:28:50;26.80;57.40
2647;DHT22;1333;50.958;6.770;2023-05-29T06:31:16;27.30;55.80
2647;DHT22;1333;50.958;6.770;2023-05-29T06:33:42;27.80;53.40
2647;DHT22;1333;50.958;6.770;2023-05-29T06:36:07;28.40;51.30
2647;DHT22;1333;50.958;6.770;2023-05-29T06:38:33;28.80;49.60
2647;DHT22;1333;50.958;6.770;2023-05-29T06:40:59;29.30;47.90
2647;DHT22;1333;50.958;6.770;2023-05-29T06:43:24;29.90;46.20
2647;DHT22;1333;50.958;6.770;2023-05-29T06:45:51;30.40;44.80
2647;DHT22;1333;50.958;6.770;2023-05-29T06:48:16;30.90;44.00
2647;DHT22;1333;50.958;6.770;2023-05-29T06:50:42;31.30;41.80
2647;DHT22;1333;50.958;6.770;2023-05-29T06:53:07;31.70;40.40
2647;DHT22;1333;50.958;6.770;2023-05-29T06:55:33;32.10;40.00
2647;DHT22;1333;50.958;6.770;2023-05-29T06:57:58;32.70;39.80
2647;DHT22;1333;50.958;6.770;2023-05-29T07:00:24;33.00;37.70
2647;DHT22;1333;50.958;6.770;2023-05-29T07:02:49;33.30;36.30
2647;DHT22;1333;50.958;6.770;2023-05-29T07:05:16;33.70;36.40
2647;DHT22;1333;50.958;6.770;2023-05-29T07:07:41;34.20;35.60
2647;DHT22;1333;50.958;6.770;2023-05-29T07:10:07;34.60;34.70
2647;DHT22;1333;50.958;6.770;2023-05-29T07:12:33;35.10;34.00
2647;DHT22;1333;50.958;6.770;2023-05-29T07:14:58;35.50;32.70
2647;DHT22;1333;50.958;6.770;2023-05-29T07:17:24;35.70;33.00
2647;DHT22;1333;50.958;6.770;2023-05-29T07:19:49;36.10;32.40
2647;DHT22;1333;50.958;6.770;2023-05-29T07:22:15;36.50;31.30
2647;DHT22;1333;50.958;6.770;2023-05-29T07:24:41;36.80;30.50
2647;DHT22;1333;50.958;6.770;2023-05-29T07:27:07;37.20;30.00
2647;DHT22;1333;50.958;6.770;2023-05-29T07:29:32;37.60;29.80
2647;DHT22;1333;50.958;6.770;2023-05-29T07:31:58;38.00;29.70
2647;DHT22;1333;50.958;6.770;2023-05-29T07:34:23;38.40;28.80
2647;DHT22;1333;50.958;6.770;2023-05-29T07:37:03;38.70;28.30
2647;DHT22;1333;50.958;6.770;2023-05-29T07:39:30;39.10;28.10
2647;DHT22;1333;50.958;6.770;2023-05-29T07:41:55;39.50;27.50
2647;DHT22;1333;50.958;6.770;2023-05-29T07:44:21;39.70;27.10
2647;DHT22;1333;50.958;6.770;2023-05-29T07:46:47;40.00;27.30
2647;DHT22;1333;50.958;6.770;2023-05-29T07:49:13;40.40;26.90
2647;DHT22;1333;50.958;6.770;2023-05-29T07:51:38;40.60;26.20
2647;DHT22;1333;50.958;6.770;2023-05-29T07:54:05;40.80;26.10
2647;DHT22;1333;50.958;6.770;2023-05-29T07:56:30;41.00;25.90
2647;DHT22;1333;50.958;6.770;2023-05-29T07:58:59;41.40;25.70
2647;DHT22;1333;50.958;6.770;2023-05-29T08:01:24;41.80;25.50
2647;DHT22;1333;50.958;6.770;2023-05-29T08:03:51;42.30;25.20
2647;DHT22;1333;50.958;6.770;2023-05-29T08:06:17;42.60;24.90
2647;DHT22;1333;50.958;6.770;2023-05-29T08:08:43;42.90;24.50
2647;DHT22;1333;50.958;6.770;2023-05-29T08:11:09;43.10;24.30
2647;DHT22;1333;50.958;6.770;2023-05-29T08:13:36;43.20;24.20
2647;DHT22;1333;50.958;6.770;2023-05-29T08:16:01;43.30;24.00
2647;DHT22;1333;50.958;6.770;2023-05-29T08:18:29;43.50;24.20
2647;DHT22;1333;50.958;6.770;2023-05-29T08:20:55;43.70;23.90
2647;DHT22;1333;50.958;6.770;2023-05-29T08:23:21;43.80;23.80
2647;DHT22;1333;50.958;6.770;2023-05-29T08:25:46;43.90;23.40
2647;DHT22;1333;50.958;6.770;2023-05-29T08:28:13;44.00;23.30
2647;DHT22;1333;50.958;6.770;2023-05-29T08:30:39;44.00;23.40
2647;DHT22;1333;50.958;6.770;2023-05-29T08:33:05;44.10;23.20
2647;DHT22;1333;50.958;6.770;2023-05-29T08:35:31;44.20;23.10
2647;DHT22;1333;50.958;6.770;2023-05-29T08:37:56;44.40;22.90
2647;DHT22;1333;50.958;6.770;2023-05-29T08:40:22;44.80;22.70
2647;DHT22;1333;50.958;6.770;2023-05-29T08:43:00;45.00;22.80
2647;DHT22;1333;50.958;6.770;2023-05-29T08:45:29;44.80;22.40
2647;DHT22;1333;50.958;6.770;2023-05-29T08:47:55;44.80;22.70
2647;DHT22;1333;50.958;6.770;2023-05-29T08:50:23;44.80;22.30
2647;DHT22;1333;50.958;6.770;2023-05-29T08:52:49;44.60;22.30
2647;DHT22;1333;50.958;6.770;2023-05-29T08:55:15;44.70;22.40
2647;DHT22;1333;50.958;6.770;2023-05-29T08:57:41;45.00;22.60
2647;DHT22;1333;50.958;6.770;2023-05-29T09:00:09;45.40;22.30
2647;DHT22;1333;50.958;6.770;2023-05-29T09:02:40;45.80;22.10
2647;DHT22;1333;50.958;6.770;2023-05-29T09:05:06;46.10;22.00
2647;DHT22;1333;50.958;6.770;2023-05-29T09:07:33;46.40;21.60
2647;DHT22;1333;50.958;6.770;2023-05-29T09:09:59;46.60;21.50
2647;DHT22;1333;50.958;6.770;2023-05-29T09:12:26;46.70;21.50
2647;DHT22;1333;50.958;6.770;2023-05-29T09:14:51;46.70;21.50
2647;DHT22;1333;50.958;6.770;2023-05-29T09:17:17;46.50;21.30
2647;DHT22;1333;50.958;6.770;2023-05-29T09:19:43;46.50;21.50
2647;DHT22;1333;50.958;6.770;2023-05-29T09:22:13;46.50;21.40
2647;DHT22;1333;50.958;6.770;2023-05-29T09:24:45;46.60;21.20
2647;DHT22;1333;50.958;6.770;2023-05-29T09:27:11;46.90;21.40
2647;DHT22;1333;50.958;6.770;2023-05-29T09:29:43;47.20;21.40
2647;DHT22;1333;50.958;6.770;2023-05-29T09:32:19;47.60;21.20
2647;DHT22;1333;50.958;6.770;2023-05-29T09:34:45;48.00;21.10
2647;DHT22;1333;50.958;6.770;2023-05-29T09:37:11;48.50;20.90
2647;DHT22;1333;50.958;6.770;2023-05-29T09:39:49;48.80;20.60
2647;DHT22;1333;50.958;6.770;2023-05-29T09:42:16;49.00;20.70
2647;DHT22;1333;50.958;6.770;2023-05-29T09:44:42;49.30;20.60
2647;DHT22;1333;50.958;6.770;2023-05-29T09:47:08;49.40;20.40
2647;DHT22;1333;50.958;6.770;2023-05-29T09:49:34;49.60;20.20
2647;DHT22;1333;50.958;6.770;2023-05-29T09:51:59;49.80;20.60
2647;DHT22;1333;50.958;6.770;2023-05-29T09:54:27;50.00;20.00
2647;DHT22;1333;50.958;6.770;2023-05-29T09:56:57;50.00;19.80
2647;DHT22;1333;50.958;6.770;2023-05-29T09:59:24;49.60;19.90
2647;DHT22;1333;50.958;6.770;2023-05-29T10:02:00;49.30;20.10
2647;DHT22;1333;50.958;6.770;2023-05-29T10:04:26;49.40;20.30
2647;DHT22;1333;50.958;6.770;2023-05-29T10:06:55;49.60;20.40
2647;DHT22;1333;50.958;6.770;2023-05-29T10:09:24;49.50;20.00
2647;DHT22;1333;50.958;6.770;2023-05-29T10:11:53;49.60;20.30
2647;DHT22;1333;50.958;6.770;2023-05-29T10:14:23;49.60;19.90
2647;DHT22;1333;50.958;6.770;2023-05-29T10:16:50;49.50;19.80
2647;DHT22;1333;50.958;6.770;2023-05-29T10:19:23;49.70;20.10
2647;DHT22;1333;50.958;6.770;2023-05-29T10:21:52;50.10;20.00
2647;DHT22;1333;50.958;6.770;2023-05-29T10:24:19;50.40;19.70
2647;DHT22;1333;50.958;6.770;2023-05-29T10:26:47;50.40;19.70
2647;DHT22;1333;50.958;6.770;2023-05-29T10:37:40;49.60;19.40
2647;DHT22;1333;50.958;6.770;2023-05-29T10:40:09;49.20;19.50
2647;DHT22;1333;50.958;6.770;2023-05-29T10:42:42;48.80;19.80
2647;DHT22;1333;50.958;6.770;2023-05-29T10:45:47;48.80;19.90
2647;DHT22;1333;50.958;6.770;2023-05-29T10:50:45;49.00;19.90
2647;DHT22;1333;50.958;6.770;2023-05-29T10:53:15;49.10;19.90
2647;DHT22;1333;50.958;6.770;2023-05-29T10:55:41;49.00;19.70
2647;DHT22;1333;50.958;6.770;2023-05-29T10:58:07;49.10;19.80
2647;DHT22;1333;50.958;6.770;2023-05-29T11:00:33;49.30;20.00
2647;DHT22;1333;50.958;6.770;2023-05-29T11:03:03;49.60;19.70
2647;DHT22;1333;50.958;6.770;2023-05-29T11:05:29;49.80;19.60
2647;DHT22;1333;50.958;6.770;2023-05-29T11:07:59;49.90;19.50
2647;DHT22;1333;50.958;6.770;2023-05-29T11:10:45;50.00;19.60
2647;DHT22;1333;50.958;6.770;2023-05-29T11:16:12;50.20;19.40
2647;DHT22;1333;50.958;6.770;2023-05-29T11:18:44;50.40;19.00
2647;DHT22;1333;50.958;6.770;2023-05-29T11:24:22;50.90;19.30
2647;DHT22;1333;50.958;6.770;2023-05-29T11:26:51;50.80;19.10
2647;DHT22;1333;50.958;6.770;2023-05-29T11:29:24;50.70;19.60
2647;DHT22;1333;50.958;6.770;2023-05-29T11:31:58;50.90;19.10
2647;DHT22;1333;50.958;6.770;2023-05-29T11:34:25;51.10;19.30
2647;DHT22;1333;50.958;6.770;2023-05-29T11:36:53;51.30;19.00
2647;DHT22;1333;50.958;6.770;2023-05-29T11:39:18;51.60;19.30
2647;DHT22;1333;50.958;6.770;2023-05-29T11:41:44;51.80;18.90
2647;DHT22;1333;50.958;6.770;2023-05-29T11:44:13;51.80;18.90
2647;DHT22;1333;50.958;6.770;2023-05-29T11:46:39;51.80;18.80
2647;DHT22;1333;50.958;6.770;2023-05-29T11:49:05;51.90;19.10
2647;DHT22;1333;50.958;6.770;2023-05-29T11:51:31;52.10;19.10
2647;DHT22;1333;50.958;6.770;2023-05-29T11:53:56;51.80;18.80
2647;DHT22;1333;50.958;6.770;2023-05-29T11:56:26;51.50;18.90
2647;DHT22;1333;50.958;6.770;2023-05-29T11:58:52;51.10;18.90
2647;DHT22;1333;50.958;6.770;2023-05-29T12:01:22;50.90;19.10
2647;DHT22;1333;50.958;6.770;2023-05-29T12:03:49;50.80;19.60
2647;DHT22;1333;50.958;6.770;2023-05-29T12:06:15;50.70;18.90
2647;DHT22;1333;50.958;6.770;2023-05-29T12:08:40;50.40;19.20
2647;DHT22;1333;50.958;6.770;2023-05-29T12:11:06;50.40;19.20
2647;DHT22;1333;50.958;6.770;2023-05-29T12:13:33;50.10;19.40
2647;DHT22;1333;50.958;6.770;2023-05-29T12:16:04;49.80;19.20
2647;DHT22;1333;50.958;6.770;2023-05-29T12:18:30;49.40;19.30
2647;DHT22;1333;50.958;6.770;2023-05-29T12:21:03;49.10;19.40
2647;DHT22;1333;50.958;6.770;2023-05-29T12:23:29;48.90;19.60
2647;DHT22;1333;50.958;6.770;2023-05-29T12:25:55;48.80;19.80
2647;DHT22;1333;50.958;6.770;2023-05-29T12:28:22;48.80;19.80
2647;DHT22;1333;50.958;6.770;2023-05-29T12:30:48;48.50;19.60
2647;DHT22;1333;50.958;6.770;2023-05-29T12:33:33;48.10;19.70
2647;DHT22;1333;50.958;6.770;2023-05-29T12:36:05;47.90;20.10
2647;DHT22;1333;50.958;6.770;2023-05-29T12:38:32;47.60;20.00
2647;DHT22;1333;50.958;6.770;2023-05-29T12:40:58;47.20;20.10
2647;DHT22;1333;50.958;6.770;2023-05-29T12:43:23;46.90;20.30
2647;DHT22;1333;50.958;6.770;2023-05-29T12:45:56;46.40;20.20
2647;DHT22;1333;50.958;6.770;2023-05-29T12:48:26;46.10;20.50
2647;DHT22;1333;50.958;6.770;2023-05-29T12:50:52;45.70;20.80
2647;DHT22;1333;50.958;6.770;2023-05-29T12:53:17;45.20;20.80
2647;DHT22;1333;50.958;6.770;2023-05-29T12:55:44;45.00;21.10
2647;DHT22;1333;50.958;6.770;2023-05-29T12:58:14;44.90;21.30
2647;DHT22;1333;50.958;6.770;2023-05-29T13:00:42;44.80;21.20
2647;DHT22;1333;50.958;6.770;2023-05-29T13:03:08;44.60;21.20
2647;DHT22;1333;50.958;6.770;2023-05-29T13:05:36;44.50;21.50
2647;DHT22;1333;50.958;6.770;2023-05-29T13:08:02;44.30;21.40
2647;DHT22;1333;50.958;6.770;2023-05-29T13:10:30;43.80;21.40
2647;DHT22;1333;50.958;6.770;2023-05-29T13:12:55;43.50;21.90
2647;DHT22;1333;50.958;6.770;2023-05-29T13:15:24;43.00;21.80
2647;DHT22;1333;50.958;6.770;2023-05-29T13:17:50;42.30;22.00
2647;DHT22;1333;50.958;6.770;2023-05-29T13:20:16;41.40;22.60
2647;DHT22;1333;50.958;6.770;2023-05-29T13:22:43;40.30;23.20
2647;DHT22;1333;50.958;6.770;2023-05-29T13:25:10;39.30;23.70
2647;DHT22;1333;50.958;6.770;2023-05-29T13:27:38;38.10;24.20
2647;DHT22;1333;50.958;6.770;2023-05-29T13:30:05;37.10;24.80
2647;DHT22;1333;50.958;6.770;2023-05-29T13:32:31;36.20;25.50
2647;DHT22;1333;50.958;6.770;2023-05-29T13:34:56;35.50;26.20
2647;DHT22;1333;50.958;6.770;2023-05-29T13:37:22;34.90;26.60
2647;DHT22;1333;50.958;6.770;2023-05-29T13:39:48;34.40;27.40
2647;DHT22;1333;50.958;6.770;2023-05-29T13:42:13;33.80;27.80
2647;DHT22;1333;50.958;6.770;2023-05-29T13:44:39;33.40;28.20
2647;DHT22;1333;50.958;6.770;2023-05-29T13:47:06;32.90;28.60
2647;DHT22;1333;50.958;6.770;2023-05-29T13:49:33;32.50;29.00
2647;DHT22;1333;50.958;6.770;2023-05-29T13:51:58;32.20;29.10
2647;DHT22;1333;50.958;6.770;2023-05-29T13:54:24;31.90;29.40
2647;DHT22;1333;50.958;6.770;2023-05-29T13:56:49;31.60;29.80
2647;DHT22;1333;50.958;6.770;2023-05-29T13:59:15;31.40;30.30
2647;DHT22;1333;50.958;6.770;2023-05-29T14:01:41;31.20;30.70
2647;DHT22;1333;50.958;6.770;2023-05-29T14:04:06;31.00;31.10
2647;DHT22;1333;50.958;6.770;2023-05-29T14:06:33;30.70;31.20
2647;DHT22;1333;50.958;6.770;2023-05-29T14:08:59;30.50;31.60
2647;DHT22;1333;50.958;6.770;2023-05-29T14:11:24;30.30;32.20
2647;DHT22;1333;50.958;6.770;2023-05-29T14:13:50;30.20;32.60
2647;DHT22;1333;50.958;6.770;2023-05-29T14:16:16;30.20;32.60
2647;DHT22;1333;50.958;6.770;2023-05-29T14:18:41;30.00;32.60
2647;DHT22;1333;50.958;6.770;2023-05-29T14:21:07;29.80;32.90
2647;DHT22;1333;50.958;6.770;2023-05-29T14:23:33;29.60;33.10
2647;DHT22;1333;50.958;6.770;2023-05-29T14:26:00;29.40;33.40
2647;DHT22;1333;50.958;6.770;2023-05-29T14:28:26;29.20;33.40
2647;DHT22;1333;50.958;6.770;2023-05-29T14:30:51;29.10;34.00
2647;DHT22;1333;50.958;6.770;2023-05-29T14:33:17;29.00;34.20
2647;DHT22;1333;50.958;6.770;2023-05-29T14:35:43;29.00;34.00
2647;DHT22;1333;50.958;6.770;2023-05-29T14:38:09;28.80;34.00
2647;DHT22;1333;50.958;6.770;2023-05-29T14:40:34;28.60;34.20
2647;DHT22;1333;50.958;6.770;2023-05-29T14:43:01;28.50;34.10
2647;DHT22;1333;50.958;6.770;2023-05-29T14:45:26;28.30;34.60
2647;DHT22;1333;50.958;6.770;2023-05-29T14:47:52;28.20;35.20
2647;DHT22;1333;50.958;6.770;2023-05-29T14:50:18;28.00;35.50
2647;DHT22;1333;50.958;6.770;2023-05-29T14:52:43;27.80;35.60
2647;DHT22;1333;50.958;6.770;2023-05-29T14:55:09;27.70;36.00
2647;DHT22;1333;50.958;6.770;2023-05-29T14:57:35;27.50;36.00
2647;DHT22;1333;50.958;6.770;2023-05-29T15:00:02;27.30;36.00
2647;DHT22;1333;50.958;6.770;2023-05-29T15:02:27;27.20;36.40
2647;DHT22;1333;50.958;6.770;2023-05-29T15:04:53;27.00;36.90
2647;DHT22;1333;50.958;6.770;2023-05-29T15:07:19;26.80;37.20
2647;DHT22;1333;50.958;6.770;2023-05-29T15:09:45;26.70;37.90
2647;DHT22;1333;50.958;6.770;2023-05-29T15:12:10;26.60;38.10
2647;DHT22;1333;50.958;6.770;2023-05-29T15:14:36;26.40;37.90
2647;DHT22;1333;50.958;6.770;2023-05-29T15:17:03;26.20;37.90
2647;DHT22;1333;50.958;6.770;2023-05-29T15:19:29;26.00;38.40
2647;DHT22;1333;50.958;6.770;2023-05-29T15:21:55;25.90;39.50
2647;DHT22;1333;50.958;6.770;2023-05-29T15:24:21;25.80;38.70
2647;DHT22;1333;50.958;6.770;2023-05-29T15:26:47;25.60;38.60
2647;DHT22;1333;50.958;6.770;2023-05-29T15:29:12;25.50;39.10
2647;DHT22;1333;50.958;6.770;2023-05-29T15:31:38;25.30;39.10
2647;DHT22;1333;50.958;6.770;2023-05-29T15:34:03;25.20;39.30
2647;DHT22;1333;50.958;6.770;2023-05-29T15:36:29;25.20;39.90
2647;DHT22;1333;50.958;6.770;2023-05-29T15:38:55;25.20;40.30
2647;DHT22;1333;50.958;6.770;2023-05-29T15:41:21;25.20;40.10
2647;DHT22;1333;50.958;6.770;2023-05-29T15:43:47;25.10;39.90
2647;DHT22;1333;50.958;6.770;2023-05-29T15:46:12;25.10;40.00
2647;DHT22;1333;50.958;6.770;2023-05-29T15:48:38;25.00;40.00
2647;DHT22;1333;50.958;6.770;2023-05-29T15:51:03;25.00;40.00
2647;DHT22;1333;50.958;6.770;2023-05-29T15:53:29;24.90;40.00
2647;DHT22;1333;50.958;6.770;2023-05-29T15:55:55;24.80;40.40
2647;DHT22;1333;50.958;6.770;2023-05-29T15:58:20;24.70;40.20
2647;DHT22;1333;50.958;6.770;2023-05-29T16:00:47;24.60;40.70
2647;DHT22;1333;50.958;6.770;2023-05-29T16:03:12;24.50;41.00
2647;DHT22;1333;50.958;6.770;2023-05-29T16:05:38;24.50;41.10
2647;DHT22;1333;50.958;6.770;2023-05-29T16:08:03;24.40;40.90
2647;DHT22;1333;50.958;6.770;2023-05-29T16:10:30;24.20;40.80
2647;DHT22;1333;50.958;6.770;2023-05-29T16:12:55;24.20;41.00
2647;DHT22;1333;50.958;6.770;2023-05-29T16:15:21;24.10;41.30
2647;DHT22;1333;50.958;6.770;2023-05-29T16:17:47;24.00;41.60
2647;DHT22;1333;50.958;6.770;2023-05-29T16:20:12;23.90;41.40
2647;DHT22;1333;50.958;6.770;2023-05-29T16:22:39;23.90;41.50
2647;DHT22;1333;50.958;6.770;2023-05-29T16:25:05;23.90;41.70